sensor_id;sensor_type;location;lat;lon;timestamp;P1;durP1;ratioP1;P2;durP2;ratioP2
61523;SDS011;47393;38.758;-9.164;2022-09-03T00:01:08;5.20;;;2.50;;
61523;SDS011;47393;38.758;-9.164;2022-09-03T00:05:34;7.57;;;2.72;;
61523;SDS011;47393;38.758;-9.164;2022-09-03T00:13:06;6.78;;;2.50;;
61523;SDS011;47393;38.758;-9.164;2022-09-03T00:15:13;4.63;;;2.40;;
61523;SDS011;47393;38.758;-9.164;2022-09-03T00:17:21;6.07;;;2.50;;
61523;SDS011;47393;38.758;-9.164;2022-09-03T00:19:34;6.53;;;2.30;;
61523;SDS011;47393;38.758;-9.164;2022-09-03T00:21:45;4.63;;;2.70;;
61523;SDS011;47393;38.758;-9.164;2022-09-03T00:23:50;6.03;;;2.58;;
61523;SDS011;47393;38.758;-9.164;2022-09-03T00:28:27;6.85;;;2.63;;
61523;SDS011;47393;38.758;-9.164;2022-09-03T00:30:36;9.70;;;2.95;;
61523;SDS011;47393;38.758;-9.164;2022-09-03T00:32:45;6.43;;;2.63;;
61523;SDS011;47393;38.758;-9.164;2022-09-03T00:34:54;4.15;;;2.30;;
61523;SDS011;47393;38.758;-9.164;2022-09-03T00:37:00;4.10;;;2.25;;
61523;SDS011;47393;38.758;-9.164;2022-09-03T00:39:01;4.28;;;2.40;;
61523;SDS011;47393;38.758;-9.164;2022-09-03T00:41:07;5.00;;;2.70;;
61523;SDS011;47393;38.758;-9.164;2022-09-03T00:52:37;3.97;;;2.50;;
61523;SDS011;47393;38.758;-9.164;2022-09-03T01:02:20;6.55;;;2.70;;
61523;SDS011;47393;38.758;-9.164;2022-09-03T01:04:27;7.65;;;2.88;;
61523;SDS011;47393;38.758;-9.164;2022-09-03T01:12:04;4.70;;;2.63;;
61523;SDS011;47393;38.758;-9.164;2022-09-03T01:16:44;6.47;;;2.92;;
61523;SDS011;47393;38.758;-9.164;2022-09-03T01:30:11;6.60;;;3.47;;
61523;SDS011;47393;38.758;-9.164;2022-09-03T01:32:24;14.73;;;3.53;;
61523;SDS011;47393;38.758;-9.164;2022-09-03T01:39:05;8.45;;;3.17;;
61523;SDS011;47393;38.758;-9.164;2022-09-03T01:41:19;7.15;;;3.30;;
61523;SDS011;47393;38.758;-9.164;2022-09-03T01:43:48;8.82;;;3.75;;
61523;SDS011;47393;38.758;-9.164;2022-09-03T01:46:02;9.07;;;3.15;;
61523;SDS011;47393;38.758;-9.164;2022-09-03T01:48:12;8.75;;;3.47;;
61523;SDS011;47393;38.758;-9.164;2022-09-03T01:52:54;5.05;;;2.85;;
61523;SDS011;47393;38.758;-9.164;2022-09-03T01:57:34;11.48;;;3.50;;
61523;SDS011;47393;38.758;-9.164;2022-09-03T02:00:02;10.15;;;3.88;;
61523;SDS011;47393;38.758;-9.164;2022-09-03T02:04:20;6.40;;;3.75;;
61523;SDS011;47393;38.758;-9.164;2022-09-03T02:06:22;10.75;;;3.97;;
61523;SDS011;47393;38.758;-9.164;2022-09-03T02:08:23;16.80;;;4.30;;
61523;SDS011;47393;38.758;-9.164;2022-09-03T02:10:28;10.98;;;3.90;;
61523;SDS011;47393;38.758;-9.164;2022-09-03T02:12:34;9.05;;;4.10;;
61523;SDS011;47393;38.758;-9.164;2022-09-03T02:14:35;14.50;;;4.63;;
61523;SDS011;47393;38.758;-9.164;2022-09-03T02:16:36;15.45;;;4.30;;
61523;SDS011;47393;38.758;-9.164;2022-09-03T02:18:40;7.88;;;4.20;;
61523;SDS011;47393;38.758;-9.164;2022-09-03T02:20:46;11.70;;;4.50;;
61523;SDS011;47393;38.758;-9.164;2022-09-03T02:22:49;10.88;;;4.97;;
61523;SDS011;47393;38.758;-9.164;2022-09-03T02:24:51;8.10;;;4.00;;
61523;SDS011;47393;38.758;-9.164;2022-09-03T02:26:54;10.82;;;4.32;;
61523;SDS011;47393;38.758;-9.164;2022-09-03T02:28:56;14.75;;;4.93;;
61523;SDS011;47393;38.758;-9.164;2022-09-03T02:30:57;20.30;;;5.05;;
61523;SDS011;47393;38.758;-9.164;2022-09-03T02:32:58;11.57;;;5.10;;
61523;SDS011;47393;38.758;-9.164;2022-09-03T02:34:59;19.42;;;5.18;;
61523;SDS011;47393;38.758;-9.164;2022-09-03T02:37:00;18.10;;;5.65;;
61523;SDS011;47393;38.758;-9.164;2022-09-03T02:39:12;10.88;;;4.47;;
61523;SDS011;47393;38.758;-9.164;2022-09-03T02:41:15;11.50;;;4.90;;
61523;SDS011;47393;38.758;-9.164;2022-09-03T02:43:18;12.45;;;5.38;;
61523;SDS011;47393;38.758;-9.164;2022-09-03T02:45:28;19.15;;;4.90;;
61523;SDS011;47393;38.758;-9.164;2022-09-03T02:47:30;11.82;;;4.38;;
61523;SDS011;47393;38.758;-9.164;2022-09-03T02:49:36;17.75;;;5.18;;
61523;SDS011;47393;38.758;-9.164;2022-09-03T02:51:38;12.95;;;4.22;;
61523;SDS011;47393;38.758;-9.164;2022-09-03T02:53:43;17.20;;;4.88;;
61523;SDS011;47393;38.758;-9.164;2022-09-03T02:55:45;20.75;;;5.07;;
61523;SDS011;47393;38.758;-9.164;2022-09-03T02:57:46;17.55;;;5.03;;
61523;SDS011;47393;38.758;-9.164;2022-09-03T02:59:47;12.15;;;4.45;;
61523;SDS011;47393;38.758;-9.164;2022-09-03T03:02:09;12.73;;;5.22;;
61523;SDS011;47393;38.758;-9.164;2022-09-03T03:04:11;18.88;;;6.15;;
61523;SDS011;47393;38.758;-9.164;2022-09-03T03:06:12;13.50;;;5.10;;
61523;SDS011;47393;38.758;-9.164;2022-09-03T03:08:16;16.83;;;4.25;;
61523;SDS011;47393;38.758;-9.164;2022-09-03T03:10:21;14.63;;;4.40;;
61523;SDS011;47393;38.758;-9.164;2022-09-03T03:12:22;13.30;;;4.57;;
61523;SDS011;47393;38.758;-9.164;2022-09-03T03:14:23;14.82;;;5.05;;
61523;SDS011;47393;38.758;-9.164;2022-09-03T03:16:24;14.05;;;4.72;;
61523;SDS011;47393;38.758;-9.164;2022-09-03T03:18:25;14.82;;;3.88;;
61523;SDS011;47393;38.758;-9.164;2022-09-03T03:20:27;18.55;;;5.07;;
61523;SDS011;47393;38.758;-9.164;2022-09-03T03:22:28;11.63;;;4.78;;
61523;SDS011;47393;38.758;-9.164;2022-09-03T03:24:28;14.68;;;5.00;;
61523;SDS011;47393;38.758;-9.164;2022-09-03T03:26:29;19.75;;;4.97;;
61523;SDS011;47393;38.758;-9.164;2022-09-03T03:28:33;32.42;;;9.30;;
61523;SDS011;47393;38.758;-9.164;2022-09-03T03:30:36;15.35;;;4.70;;
61523;SDS011;47393;38.758;-9.164;2022-09-03T03:32:38;14.57;;;5.22;;
61523;SDS011;47393;38.758;-9.164;2022-09-03T03:34:39;14.18;;;5.60;;
61523;SDS011;47393;38.758;-9.164;2022-09-03T03:36:40;14.75;;;4.93;;
61523;SDS011;47393;38.758;-9.164;2022-09-03T03:38:42;15.57;;;5.50;;
61523;SDS011;47393;38.758;-9.164;2022-09-03T03:40:43;14.65;;;4.95;;
61523;SDS011;47393;38.758;-9.164;2022-09-03T03:42:44;14.88;;;5.10;;
61523;SDS011;47393;38.758;-9.164;2022-09-03T03:44:45;23.35;;;5.50;;
61523;SDS011;47393;38.758;-9.164;2022-09-03T03:46:46;18.58;;;5.45;;
61523;SDS011;47393;38.758;-9.164;2022-09-03T03:48:47;22.90;;;5.65;;
61523;SDS011;47393;38.758;-9.164;2022-09-03T03:50:48;32.00;;;5.57;;
61523;SDS011;47393;38.758;-9.164;2022-09-03T03:52:49;19.35;;;5.30;;
61523;SDS011;47393;38.758;-9.164;2022-09-03T03:54:50;22.13;;;5.50;;
61523;SDS011;47393;38.758;-9.164;2022-09-03T03:56:52;21.77;;;5.78;;
61523;SDS011;47393;38.758;-9.164;2022-09-03T03:58:53;22.55;;;6.22;;
61523;SDS011;47393;38.758;-9.164;2022-09-03T04:00:54;21.48;;;5.55;;
61523;SDS011;47393;38.758;-9.164;2022-09-03T04:02:55;24.15;;;4.97;;
61523;SDS011;47393;38.758;-9.164;2022-09-03T04:04:56;28.42;;;5.82;;
61523;SDS011;47393;38.758;-9.164;2022-09-03T04:06:57;29.40;;;6.45;;
61523;SDS011;47393;38.758;-9.164;2022-09-03T04:08:58;27.00;;;5.75;;
61523;SDS011;47393;38.758;-9.164;2022-09-03T04:11:00;22.30;;;5.55;;
61523;SDS011;47393;38.758;-9.164;2022-09-03T04:13:01;30.73;;;5.68;;
61523;SDS011;47393;38.758;-9.164;2022-09-03T04:15:04;34.90;;;7.65;;
61523;SDS011;47393;38.758;-9.164;2022-09-03T04:17:05;29.63;;;6.15;;
61523;SDS011;47393;38.758;-9.164;2022-09-03T04:19:06;20.92;;;5.65;;
61523;SDS011;47393;38.758;-9.164;2022-09-03T04:21:11;24.25;;;5.80;;
61523;SDS011;47393;38.758;-9.164;2022-09-03T04:23:13;24.58;;;5.63;;
61523;SDS011;47393;38.758;-9.164;2022-09-03T04:25:14;25.38;;;5.53;;
61523;SDS011;47393;38.758;-9.164;2022-09-03T04:27:15;27.73;;;6.28;;
61523;SDS011;47393;38.758;-9.164;2022-09-03T04:29:16;19.90;;;6.60;;
61523;SDS011;47393;38.758;-9.164;2022-09-03T04:31:18;27.50;;;6.35;;
61523;SDS011;47393;38.758;-9.164;2022-09-03T04:33:20;28.30;;;6.28;;
61523;SDS011;47393;38.758;-9.164;2022-09-03T04:35:24;25.30;;;5.82;;
61523;SDS011;47393;38.758;-9.164;2022-09-03T04:37:26;21.38;;;6.13;;
61523;SDS011;47393;38.758;-9.164;2022-09-03T04:39:26;26.85;;;6.72;;
61523;SDS011;47393;38.758;-9.164;2022-09-03T04:41:28;25.17;;;5.60;;
61523;SDS011;47393;38.758;-9.164;2022-09-03T04:43:30;24.88;;;5.38;;
61523;SDS011;47393;38.758;-9.164;2022-09-03T04:45:31;24.80;;;5.80;;
61523;SDS011;47393;38.758;-9.164;2022-09-03T04:47:31;25.02;;;5.80;;
61523;SDS011;47393;38.758;-9.164;2022-09-03T04:49:32;24.48;;;5.80;;
61523;SDS011;47393;38.758;-9.164;2022-09-03T04:51:36;31.85;;;6.60;;
61523;SDS011;47393;38.758;-9.164;2022-09-03T04:53:38;38.65;;;6.40;;
61523;SDS011;47393;38.758;-9.164;2022-09-03T04:55:40;35.90;;;6.05;;
61523;SDS011;47393;38.758;-9.164;2022-09-03T04:57:41;35.40;;;6.78;;
61523;SDS011;47393;38.758;-9.164;2022-09-03T04:59:41;31.60;;;7.13;;
61523;SDS011;47393;38.758;-9.164;2022-09-03T05:01:42;33.13;;;6.80;;
61523;SDS011;47393;38.758;-9.164;2022-09-03T05:03:43;31.33;;;6.15;;
61523;SDS011;47393;38.758;-9.164;2022-09-03T05:05:54;29.05;;;6.45;;
61523;SDS011;47393;38.758;-9.164;2022-09-03T05:07:59;27.70;;;6.70;;
61523;SDS011;47393;38.758;-9.164;2022-09-03T05:10:06;22.27;;;6.25;;
61523;SDS011;47393;38.758;-9.164;2022-09-03T05:12:08;31.23;;;7.30;;
61523;SDS011;47393;38.758;-9.164;2022-09-03T05:14:09;29.65;;;6.38;;
61523;SDS011;47393;38.758;-9.164;2022-09-03T05:16:10;28.08;;;6.00;;
61523;SDS011;47393;38.758;-9.164;2022-09-03T05:18:11;25.08;;;6.57;;
61523;SDS011;47393;38.758;-9.164;2022-09-03T05:20:12;35.63;;;6.25;;
61523;SDS011;47393;38.758;-9.164;2022-09-03T05:22:13;33.60;;;6.60;;
61523;SDS011;47393;38.758;-9.164;2022-09-03T05:24:13;26.35;;;5.85;;
61523;SDS011;47393;38.758;-9.164;2022-09-03T05:26:17;28.67;;;6.43;;
61523;SDS011;47393;38.758;-9.164;2022-09-03T05:28:20;36.35;;;6.20;;
61523;SDS011;47393;38.758;-9.164;2022-09-03T05:30:20;31.55;;;6.40;;
61523;SDS011;47393;38.758;-9.164;2022-09-03T05:32:21;34.00;;;6.00;;
61523;SDS011;47393;38.758;-9.164;2022-09-03T05:34:22;24.40;;;6.38;;
61523;SDS011;47393;38.758;-9.164;2022-09-03T05:36:23;31.20;;;6.38;;
61523;SDS011;47393;38.758;-9.164;2022-09-03T05:38:25;27.77;;;6.28;;
61523;SDS011;47393;38.758;-9.164;2022-09-03T05:40:26;29.20;;;7.07;;
61523;SDS011;47393;38.758;-9.164;2022-09-03T05:42:27;33.60;;;6.72;;
61523;SDS011;47393;38.758;-9.164;2022-09-03T05:44:28;37.95;;;6.40;;
61523;SDS011;47393;38.758;-9.164;2022-09-03T05:46:29;32.40;;;6.07;;
61523;SDS011;47393;38.758;-9.164;2022-09-03T05:48:32;31.65;;;6.72;;
61523;SDS011;47393;38.758;-9.164;2022-09-03T05:50:34;31.50;;;6.28;;
61523;SDS011;47393;38.758;-9.164;2022-09-03T05:52:35;36.30;;;6.80;;
61523;SDS011;47393;38.758;-9.164;2022-09-03T05:54:36;28.40;;;5.20;;
61523;SDS011;47393;38.758;-9.164;2022-09-03T05:56:38;37.92;;;6.47;;
61523;SDS011;47393;38.758;-9.164;2022-09-03T05:58:40;24.58;;;5.75;;
61523;SDS011;47393;38.758;-9.164;2022-09-03T06:00:41;22.48;;;6.18;;
61523;SDS011;47393;38.758;-9.164;2022-09-03T06:02:42;29.13;;;6.00;;
61523;SDS011;47393;38.758;-9.164;2022-09-03T06:04:49;39.03;;;6.10;;
61523;SDS011;47393;38.758;-9.164;2022-09-03T06:06:50;34.63;;;7.15;;
61523;SDS011;47393;38.758;-9.164;2022-09-03T06:08:51;36.15;;;6.53;;
61523;SDS011;47393;38.758;-9.164;2022-09-03T06:10:57;36.33;;;6.32;;
61523;SDS011;47393;38.758;-9.164;2022-09-03T06:12:58;32.33;;;5.82;;
61523;SDS011;47393;38.758;-9.164;2022-09-03T06:14:59;33.03;;;7.22;;
61523;SDS011;47393;38.758;-9.164;2022-09-03T06:17:00;21.30;;;5.10;;
61523;SDS011;47393;38.758;-9.164;2022-09-03T06:19:02;31.45;;;6.13;;
61523;SDS011;47393;38.758;-9.164;2022-09-03T06:21:04;24.48;;;5.68;;
61523;SDS011;47393;38.758;-9.164;2022-09-03T06:23:06;22.85;;;4.95;;
61523;SDS011;47393;38.758;-9.164;2022-09-03T06:25:07;30.80;;;6.20;;
61523;SDS011;47393;38.758;-9.164;2022-09-03T06:27:08;24.33;;;5.80;;
61523;SDS011;47393;38.758;-9.164;2022-09-03T06:29:10;24.23;;;5.53;;
61523;SDS011;47393;38.758;-9.164;2022-09-03T06:31:12;27.38;;;5.93;;
61523;SDS011;47393;38.758;-9.164;2022-09-03T06:33:16;17.95;;;4.43;;
61523;SDS011;47393;38.758;-9.164;2022-09-03T06:35:17;15.98;;;4.50;;
61523;SDS011;47393;38.758;-9.164;2022-09-03T06:37:18;26.35;;;5.55;;
61523;SDS011;47393;38.758;-9.164;2022-09-03T06:39:19;22.67;;;4.43;;
61523;SDS011;47393;38.758;-9.164;2022-09-03T06:41:22;21.90;;;4.50;;
61523;SDS011;47393;38.758;-9.164;2022-09-03T06:43:25;20.90;;;4.70;;
61523;SDS011;47393;38.758;-9.164;2022-09-03T06:45:26;22.90;;;5.00;;
61523;SDS011;47393;38.758;-9.164;2022-09-03T06:47:27;20.13;;;4.38;;
61523;SDS011;47393;38.758;-9.164;2022-09-03T06:49:28;20.15;;;4.15;;
61523;SDS011;47393;38.758;-9.164;2022-09-03T06:51:29;20.98;;;4.55;;
61523;SDS011;47393;38.758;-9.164;2022-09-03T06:53:35;20.27;;;4.90;;
61523;SDS011;47393;38.758;-9.164;2022-09-03T06:55:38;18.60;;;4.30;;
61523;SDS011;47393;38.758;-9.164;2022-09-03T06:57:39;20.00;;;4.68;;
61523;SDS011;47393;38.758;-9.164;2022-09-03T06:59:39;20.67;;;4.28;;
61523;SDS011;47393;38.758;-9.164;2022-09-03T07:01:41;18.30;;;4.53;;
61523;SDS011;47393;38.758;-9.164;2022-09-03T07:03:43;17.20;;;3.58;;
61523;SDS011;47393;38.758;-9.164;2022-09-03T07:05:46;13.30;;;4.20;;
61523;SDS011;47393;38.758;-9.164;2022-09-03T07:07:46;12.45;;;4.10;;
61523;SDS011;47393;38.758;-9.164;2022-09-03T07:09:53;10.00;;;2.95;;
61523;SDS011;47393;38.758;-9.164;2022-09-03T07:11:54;15.70;;;2.92;;
61523;SDS011;47393;38.758;-9.164;2022-09-03T07:13:58;10.20;;;2.72;;
61523;SDS011;47393;38.758;-9.164;2022-09-03T07:16:00;13.10;;;2.88;;
61523;SDS011;47393;38.758;-9.164;2022-09-03T07:18:04;20.98;;;3.20;;
61523;SDS011;47393;38.758;-9.164;2022-09-03T07:20:05;12.00;;;2.58;;
61523;SDS011;47393;38.758;-9.164;2022-09-03T07:22:06;13.15;;;2.92;;
61523;SDS011;47393;38.758;-9.164;2022-09-03T07:24:08;7.78;;;2.92;;
61523;SDS011;47393;38.758;-9.164;2022-09-03T07:26:15;13.48;;;3.03;;
61523;SDS011;47393;38.758;-9.164;2022-09-03T07:28:21;15.93;;;2.47;;
61523;SDS011;47393;38.758;-9.164;2022-09-03T07:30:23;15.55;;;3.60;;
61523;SDS011;47393;38.758;-9.164;2022-09-03T07:32:24;19.77;;;3.40;;
61523;SDS011;47393;38.758;-9.164;2022-09-03T07:34:24;17.70;;;2.95;;
61523;SDS011;47393;38.758;-9.164;2022-09-03T07:36:26;13.82;;;3.08;;
61523;SDS011;47393;38.758;-9.164;2022-09-03T07:38:28;9.80;;;3.17;;
61523;SDS011;47393;38.758;-9.164;2022-09-03T07:40:29;9.38;;;2.97;;
61523;SDS011;47393;38.758;-9.164;2022-09-03T07:42:30;7.63;;;2.40;;
61523;SDS011;47393;38.758;-9.164;2022-09-03T07:44:31;7.15;;;2.50;;
61523;SDS011;47393;38.758;-9.164;2022-09-03T07:46:33;14.57;;;2.80;;
61523;SDS011;47393;38.758;-9.164;2022-09-03T07:48:39;12.63;;;3.13;;
61523;SDS011;47393;38.758;-9.164;2022-09-03T07:50:41;14.40;;;3.20;;
61523;SDS011;47393;38.758;-9.164;2022-09-03T07:52:42;16.40;;;4.30;;
61523;SDS011;47393;38.758;-9.164;2022-09-03T07:54:43;17.40;;;3.15;;
61523;SDS011;47393;38.758;-9.164;2022-09-03T07:56:44;14.38;;;2.90;;
61523;SDS011;47393;38.758;-9.164;2022-09-03T07:58:44;12.23;;;2.72;;
61523;SDS011;47393;38.758;-9.164;2022-09-03T08:00:45;9.98;;;3.05;;
61523;SDS011;47393;38.758;-9.164;2022-09-03T08:02:46;9.00;;;2.80;;
61523;SDS011;47393;38.758;-9.164;2022-09-03T08:04:47;10.88;;;2.97;;
61523;SDS011;47393;38.758;-9.164;2022-09-03T08:09:10;12.70;;;2.95;;
61523;SDS011;47393;38.758;-9.164;2022-09-03T08:11:15;11.45;;;3.22;;
61523;SDS011;47393;38.758;-9.164;2022-09-03T08:13:39;13.45;;;2.35;;
61523;SDS011;47393;38.758;-9.164;2022-09-03T08:15:54;18.55;;;3.05;;
61523;SDS011;47393;38.758;-9.164;2022-09-03T08:17:56;9.45;;;2.80;;
61523;SDS011;47393;38.758;-9.164;2022-09-03T08:19:56;21.83;;;2.97;;
61523;SDS011;47393;38.758;-9.164;2022-09-03T08:21:57;7.50;;;2.88;;
61523;SDS011;47393;38.758;-9.164;2022-09-03T08:24:00;18.70;;;3.03;;
61523;SDS011;47393;38.758;-9.164;2022-09-03T08:28:04;8.10;;;2.75;;
61523;SDS011;47393;38.758;-9.164;2022-09-03T08:30:05;13.82;;;3.25;;
61523;SDS011;47393;38.758;-9.164;2022-09-03T08:32:07;9.25;;;2.90;;
61523;SDS011;47393;38.758;-9.164;2022-09-03T08:34:08;10.57;;;2.78;;
61523;SDS011;47393;38.758;-9.164;2022-09-03T08:36:10;10.40;;;2.83;;
61523;SDS011;47393;38.758;-9.164;2022-09-03T08:38:12;8.98;;;3.10;;
61523;SDS011;47393;38.758;-9.164;2022-09-03T08:40:13;11.48;;;2.63;;
61523;SDS011;47393;38.758;-9.164;2022-09-03T08:42:24;7.22;;;2.70;;
61523;SDS011;47393;38.758;-9.164;2022-09-03T08:49:12;15.38;;;1.85;;
61523;SDS011;47393;38.758;-9.164;2022-09-03T08:51:25;13.68;;;3.13;;
61523;SDS011;47393;38.758;-9.164;2022-09-03T08:55:34;6.68;;;2.00;;
61523;SDS011;47393;38.758;-9.164;2022-09-03T08:57:46;9.70;;;2.00;;
61523;SDS011;47393;38.758;-9.164;2022-09-03T08:59:50;8.02;;;2.63;;
61523;SDS011;47393;38.758;-9.164;2022-09-03T09:01:55;10.65;;;2.33;;
61523;SDS011;47393;38.758;-9.164;2022-09-03T09:06:10;7.13;;;2.40;;
61523;SDS011;47393;38.758;-9.164;2022-09-03T09:08:53;5.07;;;1.70;;
61523;SDS011;47393;38.758;-9.164;2022-09-03T09:25:29;8.50;;;2.33;;
61523;SDS011;47393;38.758;-9.164;2022-09-03T09:27:33;6.38;;;2.05;;
61523;SDS011;47393;38.758;-9.164;2022-09-03T09:29:35;11.30;;;2.72;;
61523;SDS011;47393;38.758;-9.164;2022-09-03T09:31:38;9.57;;;2.05;;
61523;SDS011;47393;38.758;-9.164;2022-09-03T09:33:40;7.82;;;2.40;;
61523;SDS011;47393;38.758;-9.164;2022-09-03T09:35:42;6.35;;;2.25;;
61523;SDS011;47393;38.758;-9.164;2022-09-03T09:37:47;9.15;;;1.77;;
61523;SDS011;47393;38.758;-9.164;2022-09-03T09:39:58;8.55;;;1.80;;
61523;SDS011;47393;38.758;-9.164;2022-09-03T09:42:00;6.40;;;2.10;;
61523;SDS011;47393;38.758;-9.164;2022-09-03T09:44:16;8.80;;;1.85;;
61523;SDS011;47393;38.758;-9.164;2022-09-03T09:46:20;7.68;;;2.13;;
61523;SDS011;47393;38.758;-9.164;2022-09-03T09:48:28;9.32;;;2.10;;
61523;SDS011;47393;38.758;-9.164;2022-09-03T09:50:31;4.50;;;1.80;;
61523;SDS011;47393;38.758;-9.164;2022-09-03T09:52:32;10.75;;;1.95;;
61523;SDS011;47393;38.758;-9.164;2022-09-03T09:54:33;15.43;;;2.72;;
61523;SDS011;47393;38.758;-9.164;2022-09-03T09:56:34;9.38;;;2.15;;
61523;SDS011;47393;38.758;-9.164;2022-09-03T09:58:35;6.43;;;2.60;;
61523;SDS011;47393;38.758;-9.164;2022-09-03T10:00:35;8.27;;;1.88;;
61523;SDS011;47393;38.758;-9.164;2022-09-03T10:02:37;11.88;;;2.42;;
61523;SDS011;47393;38.758;-9.164;2022-09-03T10:04:42;12.40;;;2.25;;
61523;SDS011;47393;38.758;-9.164;2022-09-03T10:06:43;4.50;;;2.00;;
61523;SDS011;47393;38.758;-9.164;2022-09-03T10:09:06;2.50;;;1.50;;
61523;SDS011;47393;38.758;-9.164;2022-09-03T10:11:09;4.43;;;2.10;;
61523;SDS011;47393;38.758;-9.164;2022-09-03T10:13:11;14.23;;;2.05;;
61523;SDS011;47393;38.758;-9.164;2022-09-03T10:20:30;6.57;;;2.10;;
61523;SDS011;47393;38.758;-9.164;2022-09-03T10:22:32;12.02;;;2.58;;
61523;SDS011;47393;38.758;-9.164;2022-09-03T10:26:56;4.38;;;1.63;;
61523;SDS011;47393;38.758;-9.164;2022-09-03T10:28:58;80.00;;;5.05;;
61523;SDS011;47393;38.758;-9.164;2022-09-03T10:33:38;1.95;;;1.38;;
61523;SDS011;47393;38.758;-9.164;2022-09-03T10:35:49;4.38;;;1.60;;
61523;SDS011;47393;38.758;-9.164;2022-09-03T10:42:39;12.40;;;1.67;;
61523;SDS011;47393;38.758;-9.164;2022-09-03T10:59:23;2.15;;;1.30;;
61523;SDS011;47393;38.758;-9.164;2022-09-03T11:01:37;11.05;;;1.38;;
61523;SDS011;47393;38.758;-9.164;2022-09-03T11:03:58;12.77;;;1.67;;
61523;SDS011;47393;38.758;-9.164;2022-09-03T11:10:43;4.82;;;1.48;;
61523;SDS011;47393;38.758;-9.164;2022-09-03T11:12:50;2.13;;;1.40;;
61523;SDS011;47393;38.758;-9.164;2022-09-03T11:15:22;6.70;;;1.02;;
61523;SDS011;47393;38.758;-9.164;2022-09-03T11:17:28;3.50;;;1.23;;
61523;SDS011;47393;38.758;-9.164;2022-09-03T11:19:55;8.35;;;1.10;;
61523;SDS011;47393;38.758;-9.164;2022-09-03T11:22:05;10.82;;;2.03;;
61523;SDS011;47393;38.758;-9.164;2022-09-03T11:24:14;2.72;;;1.60;;
61523;SDS011;47393;38.758;-9.164;2022-09-03T11:26:20;3.17;;;1.67;;
61523;SDS011;47393;38.758;-9.164;2022-09-03T11:28:30;7.05;;;1.20;;
61523;SDS011;47393;38.758;-9.164;2022-09-03T11:30:54;5.05;;;1.20;;
61523;SDS011;47393;38.758;-9.164;2022-09-03T11:33:04;4.32;;;1.65;;
61523;SDS011;47393;38.758;-9.164;2022-09-03T11:37:43;2.17;;;1.33;;
61523;SDS011;47393;38.758;-9.164;2022-09-03T11:40:15;6.30;;;1.35;;
61523;SDS011;47393;38.758;-9.164;2022-09-03T11:42:38;2.22;;;1.50;;
61523;SDS011;47393;38.758;-9.164;2022-09-03T11:44:41;1.42;;;1.33;;
61523;SDS011;47393;38.758;-9.164;2022-09-03T11:46:57;1.75;;;0.90;;
61523;SDS011;47393;38.758;-9.164;2022-09-03T11:49:08;1.77;;;1.50;;
61523;SDS011;47393;38.758;-9.164;2022-09-03T11:51:32;7.20;;;1.85;;
61523;SDS011;47393;38.758;-9.164;2022-09-03T11:58:15;6.32;;;1.67;;
61523;SDS011;47393;38.758;-9.164;2022-09-03T12:00:30;1.80;;;1.45;;
61523;SDS011;47393;38.758;-9.164;2022-09-03T12:02:31;2.25;;;1.42;;
61523;SDS011;47393;38.758;-9.164;2022-09-03T12:04:44;2.47;;;1.40;;
61523;SDS011;47393;38.758;-9.164;2022-09-03T12:14:53;4.43;;;1.35;;
61523;SDS011;47393;38.758;-9.164;2022-09-03T12:19:20;1.73;;;1.63;;
61523;SDS011;47393;38.758;-9.164;2022-09-03T12:21:57;1.52;;;1.30;;
61523;SDS011;47393;38.758;-9.164;2022-09-03T12:23:57;6.78;;;2.08;;
61523;SDS011;47393;38.758;-9.164;2022-09-03T12:26:12;5.95;;;1.90;;
61523;SDS011;47393;38.758;-9.164;2022-09-03T12:28:18;1.42;;;1.33;;
61523;SDS011;47393;38.758;-9.164;2022-09-03T12:30:22;2.60;;;1.30;;
61523;SDS011;47393;38.758;-9.164;2022-09-03T12:32:25;1.20;;;1.10;;
61523;SDS011;47393;38.758;-9.164;2022-09-03T12:34:27;2.63;;;1.60;;
61523;SDS011;47393;38.758;-9.164;2022-09-03T12:36:35;2.10;;;1.15;;
61523;SDS011;47393;38.758;-9.164;2022-09-03T12:39:06;4.13;;;1.60;;
61523;SDS011;47393;38.758;-9.164;2022-09-03T12:41:20;7.47;;;1.55;;
61523;SDS011;47393;38.758;-9.164;2022-09-03T12:43:26;2.20;;;1.48;;
61523;SDS011;47393;38.758;-9.164;2022-09-03T12:45:31;3.65;;;1.58;;
61523;SDS011;47393;38.758;-9.164;2022-09-03T12:47:43;3.92;;;2.08;;
61523;SDS011;47393;38.758;-9.164;2022-09-03T12:50:06;10.52;;;1.70;;
61523;SDS011;47393;38.758;-9.164;2022-09-03T12:52:17;10.25;;;1.60;;
61523;SDS011;47393;38.758;-9.164;2022-09-03T12:54:51;2.38;;;1.40;;
61523;SDS011;47393;38.758;-9.164;2022-09-03T12:56:57;2.90;;;1.25;;
61523;SDS011;47393;38.758;-9.164;2022-09-03T12:59:03;10.90;;;1.38;;
61523;SDS011;47393;38.758;-9.164;2022-09-03T13:01:10;6.43;;;1.27;;
61523;SDS011;47393;38.758;-9.164;2022-09-03T13:07:44;9.73;;;1.67;;
61523;SDS011;47393;38.758;-9.164;2022-09-03T13:09:49;11.15;;;1.92;;
61523;SDS011;47393;38.758;-9.164;2022-09-03T13:11:50;3.30;;;1.70;;
61523;SDS011;47393;38.758;-9.164;2022-09-03T13:13:58;4.57;;;1.90;;
61523;SDS011;47393;38.758;-9.164;2022-09-03T13:18:15;2.45;;;1.73;;
61523;SDS011;47393;38.758;-9.164;2022-09-03T13:20:37;12.05;;;2.45;;
61523;SDS011;47393;38.758;-9.164;2022-09-03T13:22:55;5.25;;;2.47;;
61523;SDS011;47393;38.758;-9.164;2022-09-03T13:25:29;6.30;;;2.95;;
61523;SDS011;47393;38.758;-9.164;2022-09-03T13:27:59;7.65;;;2.42;;
61523;SDS011;47393;38.758;-9.164;2022-09-03T13:33:19;5.93;;;1.95;;
61523;SDS011;47393;38.758;-9.164;2022-09-03T13:35:37;14.70;;;2.65;;
61523;SDS011;47393;38.758;-9.164;2022-09-03T13:38:03;3.78;;;1.83;;
61523;SDS011;47393;38.758;-9.164;2022-09-03T13:40:17;7.20;;;2.30;;
61523;SDS011;47393;38.758;-9.164;2022-09-03T13:46:52;9.23;;;1.92;;
61523;SDS011;47393;38.758;-9.164;2022-09-03T13:49:01;8.68;;;2.17;;
61523;SDS011;47393;38.758;-9.164;2022-09-03T13:56:21;6.07;;;1.98;;
61523;SDS011;47393;38.758;-9.164;2022-09-03T13:58:45;3.00;;;1.90;;
61523;SDS011;47393;38.758;-9.164;2022-09-03T14:01:09;10.38;;;2.35;;
61523;SDS011;47393;38.758;-9.164;2022-09-03T14:03:30;6.18;;;2.53;;
61523;SDS011;47393;38.758;-9.164;2022-09-03T14:05:40;8.43;;;2.42;;
61523;SDS011;47393;38.758;-9.164;2022-09-03T14:07:44;9.07;;;2.20;;
61523;SDS011;47393;38.758;-9.164;2022-09-03T14:14:44;5.22;;;2.13;;
61523;SDS011;47393;38.758;-9.164;2022-09-03T14:21:57;7.90;;;2.50;;
61523;SDS011;47393;38.758;-9.164;2022-09-03T14:26:02;8.02;;;2.67;;
61523;SDS011;47393;38.758;-9.164;2022-09-03T14:28:12;10.77;;;2.03;;
61523;SDS011;47393;38.758;-9.164;2022-09-03T14:40:14;4.63;;;2.10;;
61523;SDS011;47393;38.758;-9.164;2022-09-03T14:46:39;59.75;;;5.32;;
61523;SDS011;47393;38.758;-9.164;2022-09-03T14:51:33;58.95;;;5.68;;
61523;SDS011;47393;38.758;-9.164;2022-09-03T14:56:25;22.70;;;3.17;;
61523;SDS011;47393;38.758;-9.164;2022-09-03T15:01:25;11.82;;;2.15;;
61523;SDS011;47393;38.758;-9.164;2022-09-03T15:06:10;5.38;;;1.85;;
61523;SDS011;47393;38.758;-9.164;2022-09-03T15:08:27;10.40;;;2.38;;
61523;SDS011;47393;38.758;-9.164;2022-09-03T15:10:54;11.07;;;2.78;;
61523;SDS011;47393;38.758;-9.164;2022-09-03T15:13:05;8.15;;;2.00;;
61523;SDS011;47393;38.758;-9.164;2022-09-03T15:15:20;18.80;;;2.30;;
61523;SDS011;47393;38.758;-9.164;2022-09-03T15:19:50;3.63;;;1.85;;
61523;SDS011;47393;38.758;-9.164;2022-09-03T15:31:41;7.60;;;2.67;;
61523;SDS011;47393;38.758;-9.164;2022-09-03T15:33:51;14.05;;;2.40;;
61523;SDS011;47393;38.758;-9.164;2022-09-03T15:36:03;6.45;;;2.10;;
61523;SDS011;47393;38.758;-9.164;2022-09-03T15:42:46;19.05;;;2.30;;
61523;SDS011;47393;38.758;-9.164;2022-09-03T15:44:54;6.40;;;1.80;;
61523;SDS011;47393;38.758;-9.164;2022-09-03T15:47:11;6.15;;;2.03;;
61523;SDS011;47393;38.758;-9.164;2022-09-03T15:49:35;9.10;;;2.38;;
61523;SDS011;47393;38.758;-9.164;2022-09-03T15:51:55;6.35;;;2.47;;